Time;durP1;ratioP1;P1;durP2;ratioP2;P2;SDS_P1;SDS_P2;PMS_P1;PMS_P2;Temp;Humidity;BMP_temperature;BMP_pressure;BME280_temperature;BME280_humidity;BME280_pressure;Samples;Min_cycle;Max_cycle;Signal;HPM_P1;HPM_P2
2023/12/08 00:00:32;;;;;;;22.50;13.10;;;;;;;;;;5069142;28;20556;-70
2023/12/08 00:02:57;;;;;;;22.95;12.43;;;;;;;;;;5067311;28;20040;-70
2023/12/08 00:05:23;;;;;;;25.83;13.57;;;;;;;;;;5068802;28;20037;-70
2023/12/08 00:07:49;;;;;;;27.30;13.80;;;;;;;;;;5071009;28;20565;-70
2023/12/08 00:10:15;;;;;;;24.00;13.90;;;;;;;;;;5071880;28;20115;-70
2023/12/08 00:12:41;;;;;;;23.92;13.73;;;;;;;;;;5064025;28;20041;-70
2023/12/08 00:15:08;;;;;;;23.70;13.90;;;;;;;;;;5066842;28;20116;-70
2023/12/08 00:17:34;;;;;;;24.35;12.88;;;;;;;;;;5069860;28;20033;-70
2023/12/08 00:20:00;;;;;;;29.08;14.48;;;;;;;;;;5072731;28;20391;-71
2023/12/08 00:22:27;;;;;;;25.05;13.80;;;;;;;;;;5073135;28;20044;-70
2023/12/08 00:24:53;;;;;;;25.20;14.50;;;;;;;;;;5071850;28;20033;-70
2023/12/08 00:27:19;;;;;;;23.25;12.93;;;;;;;;;;5078216;28;20043;-70
2023/12/08 00:29:45;;;;;;;25.35;13.50;;;;;;;;;;5066493;28;20120;-70
2023/12/08 00:32:11;;;;;;;26.83;14.10;;;;;;;;;;5072190;28;20410;-71
2023/12/08 00:34:37;;;;;;;26.40;13.88;;;;;;;;;;5073405;28;20044;-70
2023/12/08 00:37:03;;;;;;;25.40;14.32;;;;;;;;;;5070340;28;20089;-70
2023/12/08 00:39:29;;;;;;;28.55;14.63;;;;;;;;;;5072691;28;20124;-70
2023/12/08 00:41:55;;;;;;;23.70;13.70;;;;;;;;;;5063011;28;20119;-70
2023/12/08 00:44:21;;;;;;;26.50;13.70;;;;;;;;;;5070219;28;20098;-70
2023/12/08 00:46:48;;;;;;;27.92;13.50;;;;;;;;;;5064041;28;20032;-70
2023/12/08 00:49:14;;;;;;;22.98;13.07;;;;;;;;;;5071512;28;20047;-70
2023/12/08 00:51:40;;;;;;;23.40;13.27;;;;;;;;;;5076275;28;20037;-70
2023/12/08 00:54:06;;;;;;;25.70;14.48;;;;;;;;;;5072547;28;20123;-70
2023/12/08 00:56:32;;;;;;;27.55;14.73;;;;;;;;;;5072322;28;20044;-70
2023/12/08 00:58:58;;;;;;;26.30;14.95;;;;;;;;;;5071740;28;20128;-71
2023/12/08 01:01:24;;;;;;;27.60;14.05;;;;;;;;;;5074077;28;20078;-70
2023/12/08 01:03:50;;;;;;;27.60;14.15;;;;;;;;;;5066047;28;20040;-70
2023/12/08 01:06:16;;;;;;;26.02;14.73;;;;;;;;;;5071836;28;20048;-70
2023/12/08 01:08:42;;;;;;;26.30;13.65;;;;;;;;;;5071421;28;20057;-70
2023/12/08 01:11:08;;;;;;;28.52;14.73;;;;;;;;;;5073115;28;20560;-70
2023/12/08 01:13:34;;;;;;;29.70;15.38;;;;;;;;;;5073514;28;20414;-70
2023/12/08 01:16:00;;;;;;;29.35;15.60;;;;;;;;;;5066708;28;20032;-69
2023/12/08 01:18:26;;;;;;;26.00;14.52;;;;;;;;;;5072955;28;20044;-70
2023/12/08 01:20:54;;;;;;;27.60;14.80;;;;;;;;;;5072800;28;20036;-70
2023/12/08 01:23:20;;;;;;;25.80;14.55;;;;;;;;;;5098491;22;20588;-72
2023/12/08 01:25:46;;;;;;;29.15;14.75;;;;;;;;;;5091778;28;20115;-72
2023/12/08 01:28:12;;;;;;;28.77;15.27;;;;;;;;;;5085974;28;20040;-72
2023/12/08 01:30:38;;;;;;;28.55;14.63;;;;;;;;;;5092844;28;20051;-72
2023/12/08 01:33:04;;;;;;;27.92;15.02;;;;;;;;;;5091403;28;20048;-72
2023/12/08 01:35:30;;;;;;;26.50;14.35;;;;;;;;;;5082835;28;20036;-72
2023/12/08 01:37:56;;;;;;;27.88;15.48;;;;;;;;;;5091690;28;20123;-72
2023/12/08 01:40:22;;;;;;;27.45;14.77;;;;;;;;;;5088483;28;20043;-72
2023/12/08 01:42:48;;;;;;;32.58;15.45;;;;;;;;;;5081132;28;20509;-72
2023/12/08 01:45:14;;;;;;;29.45;14.85;;;;;;;;;;5086460;28;20047;-72
2023/12/08 01:47:41;;;;;;;29.65;14.68;;;;;;;;;;5080826;28;20093;-72
2023/12/08 01:50:07;;;;;;;26.70;14.95;;;;;;;;;;5083953;28;20127;-72
2023/12/08 01:52:34;;;;;;;28.77;15.75;;;;;;;;;;5085703;28;20047;-72
2023/12/08 01:55:00;;;;;;;31.13;16.10;;;;;;;;;;5068567;28;20083;-72
2023/12/08 01:57:26;;;;;;;30.52;15.52;;;;;;;;;;5089009;28;20044;-72
2023/12/08 01:59:52;;;;;;;30.85;15.10;;;;;;;;;;5090515;28;20044;-72
2023/12/08 02:02:18;;;;;;;26.80;15.10;;;;;;;;;;5091335;28;20032;-72
2023/12/08 02:04:45;;;;;;;28.10;15.93;;;;;;;;;;5088595;28;20379;-72
2023/12/08 02:07:11;;;;;;;30.15;15.57;;;;;;;;;;5090181;28;20554;-72
2023/12/08 02:09:37;;;;;;;26.05;15.00;;;;;;;;;;5073895;28;20119;-72
2023/12/08 02:12:04;;;;;;;27.50;15.40;;;;;;;;;;5075162;28;20036;-72
2023/12/08 02:14:30;;;;;;;28.42;15.02;;;;;;;;;;5088717;28;20044;-72
2023/12/08 02:17:00;;;;;;;27.50;14.98;;;;;;;;;;5083739;28;20114;-72
2023/12/08 02:19:27;;;;;;;28.23;15.40;;;;;;;;;;5084101;28;20128;-72
2023/12/08 02:21:53;;;;;;;30.23;15.32;;;;;;;;;;5086390;28;20039;-72
2023/12/08 02:24:19;;;;;;;29.42;15.45;;;;;;;;;;5091332;28;20079;-72
2023/12/08 02:26:48;;;;;;;29.23;14.52;;;;;;;;;;5082788;28;20063;-72
2023/12/08 02:29:14;;;;;;;29.67;15.15;;;;;;;;;;5065915;28;20481;-72
2023/12/08 02:31:52;;;;;;;26.55;14.50;;;;;;;;;;5085499;28;20044;-72
2023/12/08 02:34:20;;;;;;;26.83;13.80;;;;;;;;;;5092180;28;20040;-72
2023/12/08 02:36:46;;;;;;;26.02;14.50;;;;;;;;;;5085691;28;20036;-72
2023/12/08 02:39:14;;;;;;;28.45;13.90;;;;;;;;;;5086774;28;20428;-72
2023/12/08 02:41:41;;;;;;;25.00;13.82;;;;;;;;;;5082911;28;20043;-72
2023/12/08 02:44:07;;;;;;;29.45;14.77;;;;;;;;;;5091670;28;20410;-72
2023/12/08 02:46:33;;;;;;;29.42;14.75;;;;;;;;;;5083502;28;20032;-72
2023/12/08 02:48:59;;;;;;;25.90;14.38;;;;;;;;;;5086358;28;20571;-72
2023/12/08 02:51:25;;;;;;;26.15;14.43;;;;;;;;;;5079640;28;20039;-72
2023/12/08 02:53:52;;;;;;;29.95;15.10;;;;;;;;;;5084698;28;20074;-72
2023/12/08 02:56:18;;;;;;;28.45;14.02;;;;;;;;;;5087404;28;20044;-72
2023/12/08 02:58:44;;;;;;;29.88;14.40;;;;;;;;;;5072328;28;20041;-72
2023/12/08 03:01:10;;;;;;;25.85;14.00;;;;;;;;;;5064414;28;20040;-72
2023/12/08 03:03:36;;;;;;;27.38;14.55;;;;;;;;;;5075966;28;20036;-72
2023/12/08 03:06:02;;;;;;;25.42;13.65;;;;;;;;;;5084187;28;20040;-72
2023/12/08 03:08:28;;;;;;;26.20;14.70;;;;;;;;;;5086529;28;20470;-72
2023/12/08 03:10:54;;;;;;;27.85;14.75;;;;;;;;;;5091570;28;20044;-72
2023/12/08 03:13:20;;;;;;;27.85;14.35;;;;;;;;;;5080272;28;20438;-72
2023/12/08 03:15:46;;;;;;;29.38;14.75;;;;;;;;;;5087300;28;20032;-72
2023/12/08 03:18:12;;;;;;;29.58;14.15;;;;;;;;;;5088640;28;20044;-72
2023/12/08 03:20:38;;;;;;;26.08;14.10;;;;;;;;;;5094399;28;20489;-72
2023/12/08 03:23:04;;;;;;;27.58;14.75;;;;;;;;;;5087942;28;20043;-72
2023/12/08 03:25:30;;;;;;;27.05;14.00;;;;;;;;;;5088517;28;20116;-72
2023/12/08 03:27:56;;;;;;;27.35;14.52;;;;;;;;;;5093516;28;20043;-72
2023/12/08 03:30:22;;;;;;;27.10;14.30;;;;;;;;;;5087939;28;20036;-72
2023/12/08 03:32:48;;;;;;;29.50;14.65;;;;;;;;;;5085940;28;20050;-72
2023/12/08 03:35:14;;;;;;;26.05;14.30;;;;;;;;;;5092245;28;20036;-72
2023/12/08 03:37:41;;;;;;;25.55;14.20;;;;;;;;;;5091672;28;20032;-72
2023/12/08 03:40:07;;;;;;;29.77;14.98;;;;;;;;;;5072406;28;20044;-72
2023/12/08 03:42:36;;;;;;;29.52;15.45;;;;;;;;;;5085300;28;20482;-72
2023/12/08 03:45:02;;;;;;;26.92;14.43;;;;;;;;;;5091286;28;20081;-72
2023/12/08 03:47:28;;;;;;;27.55;14.88;;;;;;;;;;5082792;28;20029;-72
2023/12/08 03:49:54;;;;;;;28.25;14.38;;;;;;;;;;5087811;28;20044;-72
2023/12/08 03:52:20;;;;;;;28.40;14.45;;;;;;;;;;5085610;28;20125;-72
2023/12/08 03:54:46;;;;;;;28.95;14.88;;;;;;;;;;5080709;28;20406;-72
2023/12/08 03:57:12;;;;;;;27.52;15.10;;;;;;;;;;5094473;28;20085;-72
2023/12/08 03:59:38;;;;;;;30.67;15.55;;;;;;;;;;5090220;28;20040;-72
2023/12/08 04:02:04;;;;;;;30.48;15.10;;;;;;;;;;5059031;28;20065;-72
2023/12/08 04:04:30;;;;;;;27.92;14.75;;;;;;;;;;5094783;28;20063;-72
2023/12/08 04:06:56;;;;;;;29.52;14.82;;;;;;;;;;5085892;28;20443;-72
2023/12/08 04:09:22;;;;;;;31.85;14.70;;;;;;;;;;5094049;28;20097;-72
2023/12/08 04:11:48;;;;;;;29.38;14.90;;;;;;;;;;5067021;28;20432;-72
2023/12/08 04:14:14;;;;;;;27.50;15.38;;;;;;;;;;5091986;28;20047;-72
2023/12/08 04:16:40;;;;;;;29.83;15.98;;;;;;;;;;5083128;28;20458;-72
2023/12/08 04:19:07;;;;;;;30.38;14.68;;;;;;;;;;5094383;28;20094;-72
2023/12/08 04:21:33;;;;;;;31.10;15.75;;;;;;;;;;5085807;28;20050;-72
2023/12/08 04:23:59;;;;;;;29.10;14.88;;;;;;;;;;5093743;28;20044;-72
2023/12/08 04:26:25;;;;;;;30.70;15.23;;;;;;;;;;5090765;28;20059;-72
2023/12/08 04:28:53;;;;;;;29.50;15.25;;;;;;;;;;5092497;28;20051;-72
2023/12/08 04:31:20;;;;;;;29.00;15.27;;;;;;;;;;5080110;28;20055;-72
2023/12/08 04:33:47;;;;;;;28.58;15.00;;;;;;;;;;5083853;28;20048;-72
2023/12/08 04:36:13;;;;;;;28.40;15.35;;;;;;;;;;5093656;28;20513;-72
2023/12/08 04:38:39;;;;;;;29.60;15.20;;;;;;;;;;5093978;28;20127;-72
2023/12/08 04:41:05;;;;;;;26.45;13.90;;;;;;;;;;5083173;28;20434;-72
2023/12/08 04:43:31;;;;;;;30.30;15.23;;;;;;;;;;5089590;28;20035;-72
2023/12/08 04:45:57;;;;;;;29.00;14.93;;;;;;;;;;5093752;28;20044;-72
2023/12/08 04:48:23;;;;;;;30.40;14.93;;;;;;;;;;5093813;28;20490;-72
2023/12/08 04:50:52;;;;;;;32.83;15.52;;;;;;;;;;5086555;28;20123;-72
2023/12/08 04:53:18;;;;;;;32.70;15.82;;;;;;;;;;5082477;28;20044;-72
2023/12/08 04:55:45;;;;;;;35.25;16.48;;;;;;;;;;5090982;28;20036;-72
2023/12/08 04:58:10;;;;;;;27.92;15.05;;;;;;;;;;5093102;28;20040;-72
2023/12/08 05:00:36;;;;;;;27.95;14.77;;;;;;;;;;5079064;28;20091;-72
2023/12/08 05:03:02;;;;;;;30.10;15.23;;;;;;;;;;5074011;28;20123;-72
2023/12/08 05:05:28;;;;;;;33.13;15.77;;;;;;;;;;5074806;28;20036;-72
2023/12/08 05:07:54;;;;;;;34.70;16.63;;;;;;;;;;5084758;28;20043;-72
2023/12/08 05:10:20;;;;;;;32.25;15.30;;;;;;;;;;5081258;28;20028;-72
2023/12/08 05:12:47;;;;;;;34.80;16.52;;;;;;;;;;5086762;28;20040;-72
2023/12/08 05:15:13;;;;;;;31.77;15.75;;;;;;;;;;5092643;28;20581;-72
2023/12/08 05:17:39;;;;;;;31.73;15.52;;;;;;;;;;5083292;28;20117;-72
2023/12/08 05:20:06;;;;;;;33.60;16.67;;;;;;;;;;5089851;28;20050;-72
2023/12/08 05:22:32;;;;;;;32.25;16.00;;;;;;;;;;5078384;28;20074;-72
2023/12/08 05:24:58;;;;;;;30.40;16.05;;;;;;;;;;5092500;28;20051;-72
2023/12/08 05:27:24;;;;;;;32.70;16.25;;;;;;;;;;5092658;28;20077;-72
2023/12/08 05:29:50;;;;;;;32.90;15.95;;;;;;;;;;5093004;28;20464;-71
2023/12/08 05:32:16;;;;;;;31.90;15.88;;;;;;;;;;5066452;28;20044;-71
2023/12/08 05:34:42;;;;;;;29.25;15.55;;;;;;;;;;5093095;28;20046;-71
2023/12/08 05:37:08;;;;;;;37.15;17.38;;;;;;;;;;5078349;28;20028;-71
2023/12/08 05:39:34;;;;;;;31.83;15.90;;;;;;;;;;5080162;28;20445;-71
2023/12/08 05:42:00;;;;;;;32.38;15.48;;;;;;;;;;5073982;28;20032;-71
2023/12/08 05:44:26;;;;;;;30.25;16.05;;;;;;;;;;5074895;28;20410;-71
2023/12/08 05:46:52;;;;;;;34.33;16.35;;;;;;;;;;5066161;28;20036;-71
2023/12/08 05:49:18;;;;;;;33.95;16.25;;;;;;;;;;5068382;28;20045;-71
2023/12/08 05:51:44;;;;;;;34.35;17.20;;;;;;;;;;5069742;28;20039;-71
2023/12/08 05:54:11;;;;;;;33.20;16.52;;;;;;;;;;5070860;28;20086;-70
2023/12/08 05:56:37;;;;;;;36.47;16.73;;;;;;;;;;5071191;28;20418;-70
2023/12/08 05:59:03;;;;;;;33.28;16.92;;;;;;;;;;5073572;28;20043;-70
2023/12/08 06:01:29;;;;;;;34.15;16.20;;;;;;;;;;5072775;28;20040;-70
2023/12/08 06:03:55;;;;;;;36.33;17.20;;;;;;;;;;5074994;28;20043;-70
2023/12/08 06:06:21;;;;;;;34.33;16.60;;;;;;;;;;5072730;28;20043;-70
2023/12/08 06:08:47;;;;;;;36.78;17.30;;;;;;;;;;5073214;28;20041;-70
2023/12/08 06:11:13;;;;;;;34.55;17.35;;;;;;;;;;5073148;28;20067;-70
2023/12/08 06:13:39;;;;;;;34.55;17.52;;;;;;;;;;5072683;28;20482;-70
2023/12/08 06:16:05;;;;;;;31.77;16.10;;;;;;;;;;5075565;28;20090;-70
2023/12/08 06:18:31;;;;;;;35.97;17.98;;;;;;;;;;5073988;28;20036;-70
2023/12/08 06:20:58;;;;;;;32.38;15.80;;;;;;;;;;5075498;28;20123;-70
2023/12/08 06:23:24;;;;;;;32.55;15.45;;;;;;;;;;5074456;28;20037;-70
2023/12/08 06:25:50;;;;;;;31.55;15.65;;;;;;;;;;5075343;28;20090;-70
2023/12/08 06:28:16;;;;;;;31.70;16.30;;;;;;;;;;5078301;28;20406;-70
2023/12/08 06:30:42;;;;;;;36.10;17.23;;;;;;;;;;5074167;28;20064;-70
2023/12/08 06:33:07;;;;;;;31.30;15.35;;;;;;;;;;5074200;28;20073;-70
2023/12/08 06:35:33;;;;;;;32.03;16.23;;;;;;;;;;5071910;28;20530;-71
2023/12/08 06:37:59;;;;;;;34.78;16.55;;;;;;;;;;5073505;28;20043;-71
2023/12/08 06:40:25;;;;;;;35.38;16.65;;;;;;;;;;5073081;28;20211;-71
2023/12/08 06:42:51;;;;;;;34.60;16.95;;;;;;;;;;5074365;28;20043;-71
2023/12/08 06:45:17;;;;;;;31.60;15.05;;;;;;;;;;5072105;28;20093;-71
2023/12/08 06:47:43;;;;;;;32.88;17.25;;;;;;;;;;5071157;28;20406;-71
2023/12/08 06:50:10;;;;;;;36.10;16.75;;;;;;;;;;5074712;28;20090;-71
2023/12/08 06:52:36;;;;;;;38.70;17.92;;;;;;;;;;5073090;28;20087;-71
2023/12/08 06:55:02;;;;;;;36.13;17.20;;;;;;;;;;5074621;28;20470;-71
2023/12/08 06:57:28;;;;;;;38.15;17.48;;;;;;;;;;5073504;28;20048;-71
2023/12/08 06:59:54;;;;;;;39.70;17.90;;;;;;;;;;5058400;28;20119;-71
2023/12/08 07:02:20;;;;;;;35.20;16.45;;;;;;;;;;5077414;28;20171;-71
2023/12/08 07:04:46;;;;;;;36.28;17.23;;;;;;;;;;5051032;28;20072;-71
2023/12/08 07:07:12;;;;;;;37.15;16.42;;;;;;;;;;5073664;28;20549;-71
2023/12/08 07:09:38;;;;;;;36.58;17.27;;;;;;;;;;5063286;28;20033;-71
2023/12/08 07:12:04;;;;;;;34.53;16.75;;;;;;;;;;5074408;28;20048;-71
2023/12/08 07:14:30;;;;;;;36.78;17.05;;;;;;;;;;5072811;28;20044;-71
2023/12/08 07:16:56;;;;;;;35.22;17.35;;;;;;;;;;5072932;28;20041;-71
2023/12/08 07:19:22;;;;;;;31.80;16.48;;;;;;;;;;5074626;28;20048;-71
2023/12/08 07:21:48;;;;;;;37.55;17.38;;;;;;;;;;5080909;22;21734;-64
2023/12/08 07:24:16;;;;;;;35.00;15.98;;;;;;;;;;5086941;28;20036;-62
2023/12/08 07:26:42;;;;;;;32.85;15.70;;;;;;;;;;5090107;28;20043;-64
2023/12/08 07:29:08;;;;;;;33.28;16.38;;;;;;;;;;5094366;22;20106;-63
2023/12/08 07:31:34;;;;;;;30.02;14.82;;;;;;;;;;5056751;28;20048;-62
2023/12/08 07:34:01;;;;;;;39.08;17.27;;;;;;;;;;5069814;28;20043;-62
2023/12/08 07:36:27;;;;;;;36.47;16.13;;;;;;;;;;5070479;28;20047;-62
2023/12/08 07:38:53;;;;;;;37.58;17.48;;;;;;;;;;5062705;28;20311;-62
2023/12/08 07:41:19;;;;;;;38.22;17.05;;;;;;;;;;5069150;28;20032;-62
2023/12/08 07:43:45;;;;;;;38.03;17.73;;;;;;;;;;5069195;28;20408;-62
2023/12/08 07:46:11;;;;;;;37.35;16.98;;;;;;;;;;5064926;28;20484;-62
2023/12/08 07:48:37;;;;;;;35.65;17.35;;;;;;;;;;5068048;28;20051;-62
2023/12/08 07:51:04;;;;;;;35.67;16.00;;;;;;;;;;5065688;28;20048;-60
2023/12/08 07:53:29;;;;;;;35.72;16.90;;;;;;;;;;5068179;28;20091;-62
2023/12/08 07:55:55;;;;;;;36.75;17.23;;;;;;;;;;5065050;28;20048;-62
2023/12/08 07:58:21;;;;;;;36.75;16.75;;;;;;;;;;5069937;28;20037;-62
2023/12/08 08:00:47;;;;;;;40.95;17.65;;;;;;;;;;5074041;28;20040;-62
2023/12/08 08:03:14;;;;;;;40.20;18.45;;;;;;;;;;5073673;28;20040;-62
2023/12/08 08:05:40;;;;;;;34.78;17.10;;;;;;;;;;5070616;28;20033;-62
2023/12/08 08:08:06;;;;;;;35.92;16.95;;;;;;;;;;5074530;28;20153;-62
2023/12/08 08:10:32;;;;;;;35.03;16.67;;;;;;;;;;5064812;28;20047;-62
2023/12/08 08:12:58;;;;;;;34.33;16.30;;;;;;;;;;5067238;28;20550;-63
2023/12/08 08:15:24;;;;;;;40.28;17.65;;;;;;;;;;5064363;28;20029;-62
2023/12/08 08:17:50;;;;;;;35.25;16.75;;;;;;;;;;5073819;28;20040;-62
2023/12/08 08:20:16;;;;;;;33.13;16.58;;;;;;;;;;5071565;28;20047;-62
2023/12/08 08:22:42;;;;;;;36.80;17.25;;;;;;;;;;5062471;28;20075;-62
2023/12/08 08:25:08;;;;;;;37.72;16.85;;;;;;;;;;5063549;28;20545;-62
2023/12/08 08:27:34;;;;;;;36.90;17.13;;;;;;;;;;5063734;28;20041;-62
2023/12/08 08:30:00;;;;;;;37.70;17.05;;;;;;;;;;5070393;28;20552;-62
2023/12/08 08:32:28;;;;;;;38.33;16.33;;;;;;;;;;5075611;28;20043;-63
2023/12/08 08:34:54;;;;;;;40.17;18.35;;;;;;;;;;5066907;28;20187;-62
2023/12/08 08:37:22;;;;;;;34.78;15.23;;;;;;;;;;5080469;28;20115;-62
2023/12/08 08:39:49;;;;;;;39.38;18.20;;;;;;;;;;5059663;28;20049;-63
2023/12/08 08:42:15;;;;;;;28.85;14.20;;;;;;;;;;5063266;28;20051;-62
2023/12/08 08:44:41;;;;;;;33.63;17.08;;;;;;;;;;5071570;28;20044;-62
2023/12/08 08:47:07;;;;;;;87.38;35.65;;;;;;;;;;5081874;28;20120;-63
2023/12/08 08:49:33;;;;;;;38.20;17.92;;;;;;;;;;5072402;28;20411;-63
2023/12/08 08:51:59;;;;;;;37.75;17.95;;;;;;;;;;5080780;28;20157;-62
2023/12/08 08:54:25;;;;;;;42.83;17.92;;;;;;;;;;5080636;28;20074;-62
2023/12/08 08:56:52;;;;;;;49.15;18.52;;;;;;;;;;5073383;28;20036;-62
2023/12/08 08:59:18;;;;;;;35.58;16.77;;;;;;;;;;5071390;28;20050;-62
2023/12/08 09:01:44;;;;;;;32.80;16.33;;;;;;;;;;5064804;28;20032;-62
2023/12/08 09:04:10;;;;;;;31.73;15.73;;;;;;;;;;5074966;28;20040;-62
2023/12/08 09:06:36;;;;;;;39.03;17.35;;;;;;;;;;5064451;28;20060;-62
2023/12/08 09:09:04;;;;;;;34.83;17.05;;;;;;;;;;5082368;28;20044;-62
2023/12/08 09:11:30;;;;;;;35.15;16.95;;;;;;;;;;5072378;28;20091;-62
2023/12/08 09:13:56;;;;;;;36.35;17.65;;;;;;;;;;5058227;28;20091;-62
2023/12/08 09:16:22;;;;;;;37.70;17.20;;;;;;;;;;5076870;28;20040;-62
2023/12/08 09:18:48;;;;;;;32.67;16.40;;;;;;;;;;5065171;28;20105;-63
2023/12/08 09:21:14;;;;;;;36.65;18.02;;;;;;;;;;5078198;28;20487;-63
2023/12/08 09:23:41;;;;;;;51.08;24.80;;;;;;;;;;5057873;28;20041;-63
2023/12/08 09:26:07;;;;;;;36.40;18.17;;;;;;;;;;5077576;28;20075;-63
2023/12/08 09:28:32;;;;;;;37.03;18.02;;;;;;;;;;5056393;28;20109;-64
2023/12/08 09:31:00;;;;;;;36.22;15.57;;;;;;;;;;5053809;28;20121;-65
2023/12/08 09:33:26;;;;;;;40.40;18.02;;;;;;;;;;5071388;28;20085;-64
2023/12/08 09:35:52;;;;;;;39.88;17.25;;;;;;;;;;5074977;28;20449;-64
2023/12/08 09:38:18;;;;;;;35.80;16.85;;;;;;;;;;5078195;28;20036;-64
2023/12/08 09:40:44;;;;;;;35.05;16.80;;;;;;;;;;5071351;28;20040;-64
2023/12/08 09:43:11;;;;;;;38.85;16.63;;;;;;;;;;5062673;28;20028;-64
2023/12/08 09:45:37;;;;;;;41.25;19.30;;;;;;;;;;5076838;28;20029;-64
2023/12/08 09:48:06;;;;;;;35.97;17.67;;;;;;;;;;5066458;28;20044;-64
2023/12/08 09:50:32;;;;;;;38.45;19.75;;;;;;;;;;5069158;28;20124;-64
2023/12/08 09:52:58;;;;;;;36.92;17.90;;;;;;;;;;5067185;28;20037;-64
2023/12/08 09:55:24;;;;;;;35.03;17.48;;;;;;;;;;5074344;28;20387;-64
2023/12/08 09:57:52;;;;;;;39.42;17.85;;;;;;;;;;5073462;28;20028;-64
2023/12/08 10:00:20;;;;;;;39.65;17.88;;;;;;;;;;5074653;28;20048;-64
2023/12/08 10:02:46;;;;;;;37.70;18.25;;;;;;;;;;5067097;28;20040;-64
2023/12/08 10:05:12;;;;;;;64.00;19.55;;;;;;;;;;5059785;28;20044;-64
2023/12/08 10:07:40;;;;;;;39.80;18.27;;;;;;;;;;5069762;28;20044;-64
2023/12/08 10:10:08;;;;;;;37.33;18.80;;;;;;;;;;5083633;28;20136;-64
2023/12/08 10:12:34;;;;;;;37.28;17.77;;;;;;;;;;5070655;28;20385;-63
2023/12/08 10:15:01;;;;;;;35.58;18.02;;;;;;;;;;5074636;28;20044;-63
2023/12/08 10:17:27;;;;;;;39.80;19.15;;;;;;;;;;5066743;28;20090;-63
2023/12/08 10:20:10;;;;;;;41.78;19.52;;;;;;;;;;5071428;28;20091;-63
2023/12/08 10:22:53;;;;;;;37.58;18.20;;;;;;;;;;5051990;28;20512;-63
2023/12/08 10:25:20;;;;;;;42.08;19.17;;;;;;;;;;5071040;28;20099;-63
2023/12/08 10:27:46;;;;;;;41.17;18.45;;;;;;;;;;5051825;28;20083;-63
2023/12/08 10:30:13;;;;;;;45.97;21.02;;;;;;;;;;5050285;28;20076;-63
2023/12/08 10:32:39;;;;;;;45.22;18.98;;;;;;;;;;5050214;28;20055;-63
2023/12/08 10:35:06;;;;;;;38.80;19.10;;;;;;;;;;5050208;28;20048;-63
2023/12/08 10:37:32;;;;;;;41.25;19.80;;;;;;;;;;5050365;28;20428;-63
2023/12/08 10:39:59;;;;;;;40.38;19.58;;;;;;;;;;5051701;28;20041;-63
2023/12/08 10:42:25;;;;;;;43.25;19.55;;;;;;;;;;5067174;28;20045;-63
2023/12/08 10:44:51;;;;;;;42.50;20.30;;;;;;;;;;5070268;28;20040;-63
2023/12/08 10:47:20;;;;;;;44.60;20.15;;;;;;;;;;5071245;28;20036;-63
2023/12/08 10:49:47;;;;;;;47.50;19.10;;;;;;;;;;5069427;28;20057;-63
2023/12/08 10:52:15;;;;;;;45.25;20.05;;;;;;;;;;5070449;28;20052;-63
2023/12/08 10:54:41;;;;;;;43.20;20.73;;;;;;;;;;5071756;28;20047;-63
2023/12/08 10:57:07;;;;;;;46.40;21.05;;;;;;;;;;5069991;28;20040;-63
2023/12/08 10:59:34;;;;;;;44.80;21.40;;;;;;;;;;5077936;28;20098;-63
2023/12/08 11:02:01;;;;;;;45.63;20.33;;;;;;;;;;5071365;28;20408;-63
2023/12/08 11:04:28;;;;;;;48.72;21.70;;;;;;;;;;5071716;28;20788;-64
2023/12/08 11:06:54;;;;;;;45.58;18.85;;;;;;;;;;5074166;28;20484;-63
2023/12/08 11:09:22;;;;;;;63.40;21.92;;;;;;;;;;5089226;28;20044;-63
2023/12/08 11:11:53;;;;;;;54.97;21.52;;;;;;;;;;5070071;28;20144;-64
2023/12/08 11:14:32;;;;;;;56.28;21.67;;;;;;;;;;5069572;28;20053;-63
2023/12/08 11:17:02;;;;;;;50.17;21.33;;;;;;;;;;5073551;28;20109;-63
2023/12/08 11:19:29;;;;;;;51.15;21.17;;;;;;;;;;5081486;28;20062;-63
2023/12/08 11:21:55;;;;;;;92.35;25.00;;;;;;;;;;5053685;28;20124;-63
2023/12/08 11:24:22;;;;;;;60.80;21.98;;;;;;;;;;5053019;28;20120;-63
2023/12/08 11:26:53;;;;;;;57.90;22.20;;;;;;;;;;5054617;28;20039;-63
2023/12/08 11:29:38;;;;;;;52.97;22.17;;;;;;;;;;5067522;28;20046;-63
2023/12/08 11:32:14;;;;;;;59.58;23.17;;;;;;;;;;5058287;28;20143;-63
2023/12/08 11:34:53;;;;;;;58.83;23.50;;;;;;;;;;5055424;28;20401;-63
2023/12/08 11:37:19;;;;;;;54.05;22.33;;;;;;;;;;5081849;28;20052;-64
2023/12/08 11:39:45;;;;;;;59.83;22.40;;;;;;;;;;5071731;28;20082;-63
2023/12/08 11:42:12;;;;;;;55.97;22.95;;;;;;;;;;5053266;28;20566;-64
2023/12/08 11:44:39;;;;;;;73.53;24.27;;;;;;;;;;5063233;28;20041;-64
2023/12/08 11:47:08;;;;;;;58.95;22.65;;;;;;;;;;5077721;28;20036;-64
2023/12/08 11:49:38;;;;;;;61.20;23.60;;;;;;;;;;5079232;28;20044;-64
2023/12/08 11:52:04;;;;;;;73.70;24.58;;;;;;;;;;5074289;28;20037;-64
2023/12/08 11:54:35;;;;;;;60.65;24.00;;;;;;;;;;5063976;28;20047;-64
2023/12/08 11:57:03;;;;;;;62.33;23.52;;;;;;;;;;5071825;28;20040;-64
2023/12/08 11:59:29;;;;;;;77.28;24.42;;;;;;;;;;5059706;28;20068;-64
2023/12/08 12:01:56;;;;;;;67.55;24.13;;;;;;;;;;5069590;28;20233;-64
2023/12/08 12:04:22;;;;;;;68.45;23.88;;;;;;;;;;5088931;28;20036;-64
2023/12/08 12:06:49;;;;;;;71.78;25.00;;;;;;;;;;5080508;28;20507;-64
2023/12/08 12:09:16;;;;;;;71.75;24.20;;;;;;;;;;5075950;28;20128;-64
2023/12/08 12:11:44;;;;;;;69.80;25.50;;;;;;;;;;5059007;28;20091;-64
2023/12/08 12:14:12;;;;;;;63.00;24.33;;;;;;;;;;5052850;28;20094;-64
2023/12/08 12:16:38;;;;;;;80.05;25.05;;;;;;;;;;5060539;28;20037;-64
2023/12/08 12:19:05;;;;;;;76.18;24.95;;;;;;;;;;5063090;28;20098;-64
2023/12/08 12:21:31;;;;;;;66.30;24.48;;;;;;;;;;5087398;28;20121;-64
2023/12/08 12:23:57;;;;;;;71.88;25.50;;;;;;;;;;5070873;28;20041;-64
2023/12/08 12:26:23;;;;;;;81.55;25.58;;;;;;;;;;5064844;28;20045;-64
2023/12/08 12:28:49;;;;;;;75.15;27.30;;;;;;;;;;5071012;28;20047;-64
2023/12/08 12:31:15;;;;;;;80.85;26.65;;;;;;;;;;5065665;28;20044;-64
2023/12/08 12:33:44;;;;;;;67.72;25.45;;;;;;;;;;5071007;28;20044;-64
2023/12/08 12:36:11;;;;;;;80.45;26.58;;;;;;;;;;5068133;28;20123;-64
2023/12/08 12:38:38;;;;;;;86.22;26.55;;;;;;;;;;5068646;28;20110;-64
2023/12/08 12:41:23;;;;;;;77.88;25.02;;;;;;;;;;5079891;28;20432;-64
2023/12/08 12:43:56;;;;;;;77.20;26.77;;;;;;;;;;5063997;28;20043;-64
2023/12/08 12:46:22;;;;;;;81.50;27.08;;;;;;;;;;5075030;28;20058;-64
2023/12/08 12:48:48;;;;;;;77.13;26.50;;;;;;;;;;5075029;28;20040;-64
2023/12/08 12:51:14;;;;;;;81.97;27.40;;;;;;;;;;5082125;28;20052;-65
2023/12/08 12:53:44;;;;;;;77.15;26.75;;;;;;;;;;5070789;28;21687;-65
2023/12/08 12:56:10;;;;;;;84.00;26.58;;;;;;;;;;5071754;28;20068;-65
2023/12/08 12:58:36;;;;;;;79.03;26.92;;;;;;;;;;5075708;28;20049;-65
2023/12/08 13:01:13;;;;;;;78.10;26.98;;;;;;;;;;5063407;28;20149;-64
2023/12/08 13:03:45;;;;;;;75.50;25.88;;;;;;;;;;5066351;28;20063;-64
2023/12/08 13:06:11;;;;;;;73.32;26.70;;;;;;;;;;5058391;28;20064;-64
2023/12/08 13:08:44;;;;;;;89.82;27.77;;;;;;;;;;5055904;28;20045;-64
2023/12/08 13:11:10;;;;;;;88.82;27.52;;;;;;;;;;5065205;28;20040;-64
2023/12/08 13:13:39;;;;;;;89.05;28.25;;;;;;;;;;5072645;28;20040;-65
2023/12/08 13:16:06;;;;;;;78.80;27.63;;;;;;;;;;5072440;28;20462;-65
2023/12/08 13:18:33;;;;;;;80.55;28.08;;;;;;;;;;5059810;28;20044;-65
2023/12/08 13:20:59;;;;;;;86.45;27.58;;;;;;;;;;5073555;28;20419;-65
2023/12/08 13:23:25;;;;;;;77.68;27.17;;;;;;;;;;5068577;28;20040;-65
2023/12/08 13:25:52;;;;;;;88.32;27.75;;;;;;;;;;5071494;28;20036;-65
2023/12/08 13:28:18;;;;;;;99.82;29.70;;;;;;;;;;5062403;28;20040;-64
2023/12/08 13:30:44;;;;;;;96.03;27.88;;;;;;;;;;5061260;28;20039;-65
2023/12/08 13:33:11;;;;;;;111.55;29.30;;;;;;;;;;5094951;22;20155;-71
2023/12/08 13:35:36;;;;;;;93.13;29.40;;;;;;;;;;5067733;28;20455;-72
2023/12/08 13:38:02;;;;;;;124.00;28.02;;;;;;;;;;5056156;28;20083;-72
2023/12/08 13:40:28;;;;;;;107.53;28.30;;;;;;;;;;5061511;28;20029;-72
2023/12/08 13:42:54;;;;;;;105.05;28.75;;;;;;;;;;5049846;28;20044;-71
2023/12/08 13:45:20;;;;;;;108.15;30.23;;;;;;;;;;5063601;28;20044;-71
2023/12/08 13:47:46;;;;;;;110.85;30.98;;;;;;;;;;5061949;28;20035;-71
2023/12/08 13:50:12;;;;;;;90.68;28.20;;;;;;;;;;5063313;28;20036;-71
2023/12/08 13:52:38;;;;;;;118.55;29.67;;;;;;;;;;5061433;28;20098;-71
2023/12/08 13:55:04;;;;;;;126.00;30.13;;;;;;;;;;5061757;28;20036;-71
2023/12/08 13:57:31;;;;;;;114.85;30.38;;;;;;;;;;5067931;28;20037;-71
2023/12/08 13:59:56;;;;;;;120.00;29.63;;;;;;;;;;5060856;28;20032;-71
2023/12/08 14:02:22;;;;;;;108.40;28.42;;;;;;;;;;5065232;28;20036;-71
2023/12/08 14:04:48;;;;;;;122.82;32.53;;;;;;;;;;5061070;28;20075;-72
2023/12/08 14:07:15;;;;;;;131.98;31.55;;;;;;;;;;5066414;28;20517;-72
2023/12/08 14:09:41;;;;;;;110.13;31.48;;;;;;;;;;5058374;28;20048;-72
2023/12/08 14:12:07;;;;;;;122.88;31.42;;;;;;;;;;5061411;28;20435;-72